Grizzly Air Cargo 5123


PANC
Ted Stevens Anchorage International Airport
Anchorage, Alaska, US
CYVR
Vancouver International Airport
Vancouver, , CA

Activity Log

Date Flight Route Aircraft Duration
06/29/2019 GRZ517 MDO J804R FRIED TR19 YZP J523 YZT WHSLR5 B738 3h 00m
06/27/2019 GRZ517 MDO J804R FRIED TR19 YZP J523 YZT WHSLR5 B738 3h 02m

Route Details

Aircraft Information
Primary: Boeing 737-800BCF
Backup: Boeing 727-200F
Route Data
Distance: 1154nm
Sched. Duration: 2h 48m
Avg. Duration: 3h 00m (+53m)
Times Flown: 2
Recm'd Route: MDO J804R FRIED TR19 YZP J523 YZT WHSLR5
Planned Altitude: 35,000ft
Origin Wx: PANC 281053Z 12003KT 10SM CLR M11/M13 A2973 RMK AO2 SLP069 I1001 T11111128 $
Dest. Wx: CYVR 281000Z 10007KT 20SM BKN081 OVC096 06/04 A3021 RMK AC7AC1 SLP230
Notes:

Financial History
Total Freight: 58,080lbs
Average Load: 29,040lbs/flt
Fuel Used: 30,417lbs
Avg. Fuel Used: 15,209lbs/flt
Fuel Expense: $37,717
Avg. Fuel Expense: $18,859
Avg. Fuel Cost: $1.24/lbs
Total Gross Income: $81,893
Pilot Pay: $458
Total Expenses: $8,948
Total Revenue: $33,785
Average Revenue: $40,946.40